sensor_id;sensor_type;location;lat;lon;timestamp;pressure;altitude;pressure_sealevel;temperature;humidity
65614;BME280;52283;49.292;10.572;2024-03-23T00:52:33;95778.19;;;8.73;100.00
65614;BME280;52283;49.292;10.572;2024-03-23T00:54:58;95770.31;;;8.94;100.00
65614;BME280;52283;49.292;10.572;2024-03-23T00:57:25;95765.28;;;8.70;100.00
65614;BME280;52283;49.292;10.572;2024-03-23T00:59:50;95760.47;;;8.48;100.00
65614;BME280;52283;49.292;10.572;2024-03-23T01:02:17;95755.44;;;8.46;100.00
65614;BME280;52283;49.292;10.572;2024-03-23T01:04:42;95753.41;;;8.75;100.00
65614;BME280;52283;49.292;10.572;2024-03-23T01:07:08;95753.59;;;8.99;100.00
65614;BME280;52283;49.292;10.572;2024-03-23T01:09:35;95739.88;;;9.12;100.00
65614;BME280;52283;49.292;10.572;2024-03-23T01:12:04;95735.31;;;9.21;100.00
65614;BME280;52283;49.292;10.572;2024-03-23T01:14:30;95727.44;;;9.25;100.00
65614;BME280;52283;49.292;10.572;2024-03-23T01:16:56;95719.72;;;9.47;100.00
65614;BME280;52283;49.292;10.572;2024-03-23T01:19:22;95714.69;;;9.46;100.00
65614;BME280;52283;49.292;10.572;2024-03-23T01:21:48;95712.13;;;9.48;100.00
65614;BME280;52283;49.292;10.572;2024-03-23T01:24:14;95719.13;;;9.08;100.00
65614;BME280;52283;49.292;10.572;2024-03-23T01:26:42;95722.78;;;9.50;100.00
65614;BME280;52283;49.292;10.572;2024-03-23T01:29:08;95721.03;;;9.41;100.00
65614;BME280;52283;49.292;10.572;2024-03-23T01:31:34;95723.50;;;9.56;100.00
65614;BME280;52283;49.292;10.572;2024-03-23T01:34:00;95719.28;;;9.38;100.00
65614;BME280;52283;49.292;10.572;2024-03-23T01:36:26;95720.47;;;8.79;100.00
65614;BME280;52283;49.292;10.572;2024-03-23T01:38:52;95715.66;;;8.79;100.00
65614;BME280;52283;49.292;10.572;2024-03-23T01:41:18;95698.06;;;9.18;100.00
65614;BME280;52283;49.292;10.572;2024-03-23T01:43:45;95689.09;;;9.42;100.00
65614;BME280;52283;49.292;10.572;2024-03-23T01:46:12;95685.63;;;9.71;100.00
65614;BME280;52283;49.292;10.572;2024-03-23T01:48:38;95681.59;;;9.67;100.00
65614;BME280;52283;49.292;10.572;2024-03-23T01:51:05;95688.50;;;9.96;100.00
65614;BME280;52283;49.292;10.572;2024-03-23T01:53:30;95683.16;;;9.98;100.00
65614;BME280;52283;49.292;10.572;2024-03-23T01:55:57;95676.75;;;9.73;100.00
65614;BME280;52283;49.292;10.572;2024-03-23T01:58:23;95666.00;;;9.47;100.00
65614;BME280;52283;49.292;10.572;2024-03-23T02:00:50;95669.97;;;9.57;100.00
65614;BME280;52283;49.292;10.572;2024-03-23T02:03:22;95675.81;;;9.59;100.00
65614;BME280;52283;49.292;10.572;2024-03-23T02:05:49;95664.34;;;9.68;100.00
65614;BME280;52283;49.292;10.572;2024-03-23T02:08:17;95655.16;;;9.79;100.00
65614;BME280;52283;49.292;10.572;2024-03-23T02:10:43;95639.75;;;10.02;100.00
65614;BME280;52283;49.292;10.572;2024-03-23T02:13:09;95633.91;;;10.06;100.00
65614;BME280;52283;49.292;10.572;2024-03-23T02:15:35;95626.06;;;10.34;100.00
65614;BME280;52283;49.292;10.572;2024-03-23T02:18:02;95631.41;;;10.32;100.00
65614;BME280;52283;49.292;10.572;2024-03-23T02:20:29;95622.19;;;10.43;100.00
65614;BME280;52283;49.292;10.572;2024-03-23T02:22:56;95622.09;;;10.19;100.00
65614;BME280;52283;49.292;10.572;2024-03-23T02:25:22;95640.94;;;9.36;100.00
65614;BME280;52283;49.292;10.572;2024-03-23T02:27:48;95625.13;;;9.55;100.00
65614;BME280;52283;49.292;10.572;2024-03-23T02:30:14;95617.78;;;9.52;100.00
65614;BME280;52283;49.292;10.572;2024-03-23T02:32:40;95597.50;;;9.87;100.00
65614;BME280;52283;49.292;10.572;2024-03-23T02:35:07;95583.31;;;10.15;100.00
65614;BME280;52283;49.292;10.572;2024-03-23T02:37:32;95571.84;;;10.49;100.00
65614;BME280;52283;49.292;10.572;2024-03-23T02:40:00;95547.06;;;10.83;100.00
65614;BME280;52283;49.292;10.572;2024-03-23T02:42:25;95560.25;;;10.82;100.00
65614;BME280;52283;49.292;10.572;2024-03-23T02:44:52;95546.81;;;10.81;100.00
65614;BME280;52283;49.292;10.572;2024-03-23T02:47:17;95548.72;;;10.91;100.00
65614;BME280;52283;49.292;10.572;2024-03-23T02:49:44;95546.91;;;10.94;100.00
65614;BME280;52283;49.292;10.572;2024-03-23T02:52:09;95548.13;;;10.98;100.00
65614;BME280;52283;49.292;10.572;2024-03-23T02:54:36;95546.25;;;11.07;100.00
65614;BME280;52283;49.292;10.572;2024-03-23T02:57:03;95534.22;;;11.12;100.00
65614;BME280;52283;49.292;10.572;2024-03-23T02:59:30;95515.63;;;11.14;100.00
65614;BME280;52283;49.292;10.572;2024-03-23T03:01:55;95520.91;;;11.18;100.00
65614;BME280;52283;49.292;10.572;2024-03-23T03:04:22;95513.59;;;11.15;100.00
65614;BME280;52283;49.292;10.572;2024-03-23T03:06:48;95517.75;;;11.08;100.00
65614;BME280;52283;49.292;10.572;2024-03-23T03:09:14;95512.09;;;11.14;100.00
65614;BME280;52283;49.292;10.572;2024-03-23T03:11:40;95519.56;;;10.87;100.00
65614;BME280;52283;49.292;10.572;2024-03-23T03:14:08;95511.09;;;10.92;100.00
65614;BME280;52283;49.292;10.572;2024-03-23T03:16:34;95512.00;;;10.82;100.00
65614;BME280;52283;49.292;10.572;2024-03-23T03:19:00;95505.66;;;10.81;100.00
65614;BME280;52283;49.292;10.572;2024-03-23T03:21:26;95503.38;;;10.80;100.00
65614;BME280;52283;49.292;10.572;2024-03-23T03:23:53;95502.34;;;10.64;100.00
65614;BME280;52283;49.292;10.572;2024-03-23T03:26:19;95504.75;;;10.73;100.00
65614;BME280;52283;49.292;10.572;2024-03-23T03:28:46;95503.16;;;10.78;100.00
65614;BME280;52283;49.292;10.572;2024-03-23T03:31:15;95502.94;;;10.76;100.00
65614;BME280;52283;49.292;10.572;2024-03-23T03:33:41;95497.88;;;10.74;100.00
65614;BME280;52283;49.292;10.572;2024-03-23T03:36:07;95490.56;;;10.71;100.00
65614;BME280;52283;49.292;10.572;2024-03-23T03:38:34;95484.06;;;10.82;100.00
65614;BME280;52283;49.292;10.572;2024-03-23T03:41:00;95484.66;;;10.75;100.00
65614;BME280;52283;49.292;10.572;2024-03-23T03:43:27;95481.88;;;10.75;100.00
65614;BME280;52283;49.292;10.572;2024-03-23T03:45:52;95472.19;;;10.76;100.00
65614;BME280;52283;49.292;10.572;2024-03-23T03:48:20;95450.53;;;10.44;100.00
65614;BME280;52283;49.292;10.572;2024-03-23T03:50:46;95443.28;;;10.73;100.00
65614;BME280;52283;49.292;10.572;2024-03-23T03:53:12;95445.09;;;10.71;100.00
65614;BME280;52283;49.292;10.572;2024-03-23T03:55:38;95441.53;;;10.70;100.00
65614;BME280;52283;49.292;10.572;2024-03-23T03:58:04;95426.97;;;10.58;100.00
65614;BME280;52283;49.292;10.572;2024-03-23T04:00:29;95435.66;;;10.55;100.00
65614;BME280;52283;49.292;10.572;2024-03-23T04:02:56;95442.66;;;10.61;100.00
65614;BME280;52283;49.292;10.572;2024-03-23T04:05:23;95437.06;;;10.61;100.00
65614;BME280;52283;49.292;10.572;2024-03-23T04:07:49;95444.22;;;10.38;100.00
65614;BME280;52283;49.292;10.572;2024-03-23T04:10:16;95443.56;;;10.32;100.00
65614;BME280;52283;49.292;10.572;2024-03-23T04:12:42;95453.66;;;10.35;100.00
65614;BME280;52283;49.292;10.572;2024-03-23T04:15:10;95456.03;;;10.50;100.00
65614;BME280;52283;49.292;10.572;2024-03-23T04:17:35;95449.47;;;10.47;100.00
65614;BME280;52283;49.292;10.572;2024-03-23T04:20:02;95460.75;;;10.36;100.00
65614;BME280;52283;49.292;10.572;2024-03-23T04:22:30;95444.63;;;10.29;100.00
65614;BME280;52283;49.292;10.572;2024-03-23T04:24:57;95452.91;;;10.34;100.00
65614;BME280;52283;49.292;10.572;2024-03-23T04:27:22;95435.56;;;10.17;100.00
65614;BME280;52283;49.292;10.572;2024-03-23T04:29:49;95439.50;;;10.08;100.00
65614;BME280;52283;49.292;10.572;2024-03-23T04:32:14;95440.78;;;10.07;100.00
65614;BME280;52283;49.292;10.572;2024-03-23T04:34:42;95449.44;;;10.04;100.00
65614;BME280;52283;49.292;10.572;2024-03-23T04:37:08;95443.91;;;9.98;100.00
65614;BME280;52283;49.292;10.572;2024-03-23T04:39:37;95448.09;;;9.86;100.00
65614;BME280;52283;49.292;10.572;2024-03-23T04:42:04;95446.28;;;9.89;100.00
65614;BME280;52283;49.292;10.572;2024-03-23T04:44:31;95443.50;;;9.89;100.00
65614;BME280;52283;49.292;10.572;2024-03-23T04:46:58;95447.06;;;9.89;100.00
65614;BME280;52283;49.292;10.572;2024-03-23T04:49:24;95444.09;;;9.82;100.00
65614;BME280;52283;49.292;10.572;2024-03-23T04:51:51;95451.78;;;10.00;100.00
65614;BME280;52283;49.292;10.572;2024-03-23T04:54:17;95433.91;;;10.08;100.00
65614;BME280;52283;49.292;10.572;2024-03-23T04:56:45;95429.53;;;10.13;100.00
65614;BME280;52283;49.292;10.572;2024-03-23T04:59:11;95434.03;;;9.97;100.00
65614;BME280;52283;49.292;10.572;2024-03-23T05:01:37;95431.19;;;10.03;100.00
65614;BME280;52283;49.292;10.572;2024-03-23T05:04:07;95415.81;;;10.15;100.00
65614;BME280;52283;49.292;10.572;2024-03-23T05:06:32;95395.66;;;10.03;100.00
65614;BME280;52283;49.292;10.572;2024-03-23T05:08:59;95390.38;;;10.19;100.00
65614;BME280;52283;49.292;10.572;2024-03-23T05:11:25;95388.50;;;10.08;100.00
65614;BME280;52283;49.292;10.572;2024-03-23T05:13:53;95395.25;;;9.94;100.00
65614;BME280;52283;49.292;10.572;2024-03-23T05:16:18;95392.28;;;9.86;100.00
65614;BME280;52283;49.292;10.572;2024-03-23T05:18:45;95400.00;;;9.99;100.00
65614;BME280;52283;49.292;10.572;2024-03-23T05:21:10;95395.88;;;10.05;100.00
65614;BME280;52283;49.292;10.572;2024-03-23T05:23:37;95403.06;;;10.20;100.00
65614;BME280;52283;49.292;10.572;2024-03-23T05:26:03;95397.97;;;10.24;100.00
65614;BME280;52283;49.292;10.572;2024-03-23T05:28:30;95394.81;;;10.33;100.00
65614;BME280;52283;49.292;10.572;2024-03-23T05:30:57;95394.13;;;10.46;100.00
65614;BME280;52283;49.292;10.572;2024-03-23T05:33:23;95399.25;;;10.60;100.00
65614;BME280;52283;49.292;10.572;2024-03-23T05:35:56;95392.31;;;10.67;100.00
65614;BME280;52283;49.292;10.572;2024-03-23T05:38:22;95394.81;;;10.71;100.00
65614;BME280;52283;49.292;10.572;2024-03-23T05:40:53;95395.03;;;10.73;100.00
65614;BME280;52283;49.292;10.572;2024-03-23T05:43:20;95398.16;;;10.82;100.00
65614;BME280;52283;49.292;10.572;2024-03-23T05:45:45;95395.16;;;10.80;100.00
65614;BME280;52283;49.292;10.572;2024-03-23T05:48:13;95406.94;;;10.73;100.00
65614;BME280;52283;49.292;10.572;2024-03-23T05:50:38;95425.53;;;10.52;100.00
65614;BME280;52283;49.292;10.572;2024-03-23T05:53:05;95442.50;;;10.11;100.00
65614;BME280;52283;49.292;10.572;2024-03-23T05:55:30;95448.34;;;9.88;100.00
65614;BME280;52283;49.292;10.572;2024-03-23T05:57:57;95454.22;;;9.85;100.00
65614;BME280;52283;49.292;10.572;2024-03-23T06:00:22;95443.72;;;9.66;100.00
65614;BME280;52283;49.292;10.572;2024-03-23T06:02:51;95434.09;;;9.67;100.00
65614;BME280;52283;49.292;10.572;2024-03-23T06:05:18;95420.97;;;9.62;100.00
65614;BME280;52283;49.292;10.572;2024-03-23T06:07:44;95422.78;;;9.54;100.00
65614;BME280;52283;49.292;10.572;2024-03-23T06:10:10;95429.88;;;9.55;100.00
65614;BME280;52283;49.292;10.572;2024-03-23T06:12:36;95424.16;;;9.72;100.00
65614;BME280;52283;49.292;10.572;2024-03-23T06:15:03;95414.91;;;9.58;100.00
65614;BME280;52283;49.292;10.572;2024-03-23T06:17:30;95416.59;;;9.67;100.00
65614;BME280;52283;49.292;10.572;2024-03-23T06:19:56;95424.81;;;9.54;100.00
65614;BME280;52283;49.292;10.572;2024-03-23T06:22:23;95428.97;;;9.71;100.00
65614;BME280;52283;49.292;10.572;2024-03-23T06:24:50;95435.25;;;9.77;100.00
65614;BME280;52283;49.292;10.572;2024-03-23T06:27:15;95441.03;;;9.55;100.00
65614;BME280;52283;49.292;10.572;2024-03-23T06:29:43;95429.31;;;9.62;100.00
65614;BME280;52283;49.292;10.572;2024-03-23T06:32:08;95425.19;;;9.69;100.00
65614;BME280;52283;49.292;10.572;2024-03-23T06:34:35;95427.53;;;9.65;100.00
65614;BME280;52283;49.292;10.572;2024-03-23T06:37:00;95417.34;;;9.67;100.00
65614;BME280;52283;49.292;10.572;2024-03-23T06:39:29;95427.88;;;9.80;100.00
65614;BME280;52283;49.292;10.572;2024-03-23T06:41:55;95432.97;;;9.76;100.00
65614;BME280;52283;49.292;10.572;2024-03-23T06:44:22;95437.03;;;9.75;100.00
65614;BME280;52283;49.292;10.572;2024-03-23T06:46:47;95436.72;;;9.60;100.00
65614;BME280;52283;49.292;10.572;2024-03-23T06:49:14;95432.63;;;9.61;100.00
65614;BME280;52283;49.292;10.572;2024-03-23T06:51:40;95420.72;;;9.60;100.00
65614;BME280;52283;49.292;10.572;2024-03-23T06:54:06;95432.13;;;9.62;100.00
65614;BME280;52283;49.292;10.572;2024-03-23T06:56:33;95438.47;;;9.57;100.00
65614;BME280;52283;49.292;10.572;2024-03-23T06:59:00;95451.94;;;9.59;100.00
65614;BME280;52283;49.292;10.572;2024-03-23T07:01:25;95459.34;;;9.51;100.00
65614;BME280;52283;49.292;10.572;2024-03-23T07:03:53;95450.03;;;9.42;100.00
65614;BME280;52283;49.292;10.572;2024-03-23T07:06:19;95468.06;;;9.36;100.00
65614;BME280;52283;49.292;10.572;2024-03-23T07:08:45;95468.19;;;9.25;100.00
65614;BME280;52283;49.292;10.572;2024-03-23T07:11:11;95469.72;;;9.20;100.00
65614;BME280;52283;49.292;10.572;2024-03-23T07:13:39;95468.06;;;9.06;100.00
65614;BME280;52283;49.292;10.572;2024-03-23T07:16:04;95457.25;;;8.97;100.00
65614;BME280;52283;49.292;10.572;2024-03-23T07:18:31;95454.22;;;8.89;100.00
65614;BME280;52283;49.292;10.572;2024-03-23T07:20:57;95450.22;;;8.84;100.00
65614;BME280;52283;49.292;10.572;2024-03-23T07:23:23;95462.53;;;9.00;100.00
65614;BME280;52283;49.292;10.572;2024-03-23T07:25:58;95470.69;;;9.28;100.00
65614;BME280;52283;49.292;10.572;2024-03-23T07:28:25;95489.59;;;9.05;100.00
65614;BME280;52283;49.292;10.572;2024-03-23T07:31:05;95498.72;;;9.06;100.00
65614;BME280;52283;49.292;10.572;2024-03-23T07:33:34;95507.25;;;9.19;100.00
65614;BME280;52283;49.292;10.572;2024-03-23T07:35:59;95512.16;;;9.02;100.00
65614;BME280;52283;49.292;10.572;2024-03-23T07:38:27;95516.38;;;9.20;100.00
65614;BME280;52283;49.292;10.572;2024-03-23T07:41:02;95509.78;;;9.17;100.00
65614;BME280;52283;49.292;10.572;2024-03-23T07:43:29;95502.19;;;9.18;100.00
65614;BME280;52283;49.292;10.572;2024-03-23T07:45:54;95485.47;;;9.18;100.00
65614;BME280;52283;49.292;10.572;2024-03-23T07:48:22;95485.56;;;9.66;100.00
65614;BME280;52283;49.292;10.572;2024-03-23T07:50:56;95489.44;;;9.58;100.00
65614;BME280;52283;49.292;10.572;2024-03-23T07:53:23;95505.50;;;9.76;100.00
65614;BME280;52283;49.292;10.572;2024-03-23T07:55:53;95514.59;;;9.52;100.00
65614;BME280;52283;49.292;10.572;2024-03-23T07:58:20;95506.31;;;10.01;100.00
65614;BME280;52283;49.292;10.572;2024-03-23T08:00:45;95508.13;;;9.68;100.00
65614;BME280;52283;49.292;10.572;2024-03-23T08:03:12;95499.25;;;9.34;100.00
65614;BME280;52283;49.292;10.572;2024-03-23T08:05:38;95508.88;;;9.03;100.00
65614;BME280;52283;49.292;10.572;2024-03-23T08:08:05;95519.00;;;9.01;100.00
65614;BME280;52283;49.292;10.572;2024-03-23T08:10:31;95546.38;;;9.02;100.00
65614;BME280;52283;49.292;10.572;2024-03-23T08:12:58;95545.25;;;8.70;100.00
65614;BME280;52283;49.292;10.572;2024-03-23T08:15:23;95579.31;;;8.07;100.00
65614;BME280;52283;49.292;10.572;2024-03-23T08:17:50;95589.69;;;7.84;100.00
65614;BME280;52283;49.292;10.572;2024-03-23T08:20:15;95619.00;;;7.62;100.00
65614;BME280;52283;49.292;10.572;2024-03-23T08:22:43;95625.84;;;7.56;100.00
65614;BME280;52283;49.292;10.572;2024-03-23T08:25:12;95626.81;;;7.30;100.00
65614;BME280;52283;49.292;10.572;2024-03-23T08:27:38;95643.94;;;7.23;100.00
65614;BME280;52283;49.292;10.572;2024-03-23T08:30:05;95654.16;;;7.54;100.00
65614;BME280;52283;49.292;10.572;2024-03-23T08:32:32;95675.88;;;7.56;100.00
65614;BME280;52283;49.292;10.572;2024-03-23T08:34:58;95681.66;;;7.36;100.00
65614;BME280;52283;49.292;10.572;2024-03-23T08:37:24;95664.16;;;7.18;100.00
65614;BME280;52283;49.292;10.572;2024-03-23T08:39:52;95665.56;;;6.91;100.00
65614;BME280;52283;49.292;10.572;2024-03-23T08:42:19;95693.22;;;7.23;100.00
65614;BME280;52283;49.292;10.572;2024-03-23T08:44:44;95701.34;;;7.32;100.00
65614;BME280;52283;49.292;10.572;2024-03-23T08:47:14;95700.59;;;7.31;100.00
65614;BME280;52283;49.292;10.572;2024-03-23T08:49:40;95693.94;;;7.12;100.00
65614;BME280;52283;49.292;10.572;2024-03-23T08:52:06;95709.69;;;6.84;100.00
65614;BME280;52283;49.292;10.572;2024-03-23T08:54:32;95715.09;;;7.04;100.00
65614;BME280;52283;49.292;10.572;2024-03-23T08:57:00;95716.09;;;6.95;100.00
65614;BME280;52283;49.292;10.572;2024-03-23T08:59:26;95720.91;;;7.06;100.00
65614;BME280;52283;49.292;10.572;2024-03-23T09:01:53;95709.53;;;7.04;100.00
65614;BME280;52283;49.292;10.572;2024-03-23T09:04:18;95712.53;;;7.65;100.00
65614;BME280;52283;49.292;10.572;2024-03-23T09:06:45;95739.53;;;7.43;100.00
65614;BME280;52283;49.292;10.572;2024-03-23T09:09:10;95748.59;;;7.38;100.00
65614;BME280;52283;49.292;10.572;2024-03-23T09:11:36;95746.31;;;7.30;100.00
65614;BME280;52283;49.292;10.572;2024-03-23T09:14:04;95746.72;;;6.69;100.00
65614;BME280;52283;49.292;10.572;2024-03-23T09:16:30;95755.91;;;6.87;100.00
65614;BME280;52283;49.292;10.572;2024-03-23T09:18:56;95766.25;;;6.86;100.00
65614;BME280;52283;49.292;10.572;2024-03-23T09:21:22;95772.53;;;7.18;100.00
65614;BME280;52283;49.292;10.572;2024-03-23T09:23:48;95768.34;;;6.91;100.00
65614;BME280;52283;49.292;10.572;2024-03-23T09:26:14;95780.63;;;7.22;100.00
65614;BME280;52283;49.292;10.572;2024-03-23T09:28:40;95785.44;;;7.27;100.00
65614;BME280;52283;49.292;10.572;2024-03-23T09:31:08;95784.59;;;7.69;100.00
65614;BME280;52283;49.292;10.572;2024-03-23T09:33:35;95773.03;;;7.82;100.00
65614;BME280;52283;49.292;10.572;2024-03-23T09:36:03;95769.59;;;7.39;100.00
65614;BME280;52283;49.292;10.572;2024-03-23T09:38:29;95792.47;;;7.17;100.00
65614;BME280;52283;49.292;10.572;2024-03-23T09:40:56;95784.72;;;7.32;100.00
65614;BME280;52283;49.292;10.572;2024-03-23T09:43:22;95801.34;;;7.26;100.00
65614;BME280;52283;49.292;10.572;2024-03-23T09:45:49;95813.00;;;7.30;100.00
65614;BME280;52283;49.292;10.572;2024-03-23T09:48:16;95812.91;;;6.77;100.00
65614;BME280;52283;49.292;10.572;2024-03-23T09:50:44;95839.03;;;6.90;100.00
65614;BME280;52283;49.292;10.572;2024-03-23T09:53:10;95837.00;;;6.91;100.00
65614;BME280;52283;49.292;10.572;2024-03-23T09:55:38;95843.06;;;6.89;100.00
65614;BME280;52283;49.292;10.572;2024-03-23T09:58:04;95855.72;;;6.96;100.00
65614;BME280;52283;49.292;10.572;2024-03-23T10:00:31;95863.19;;;6.84;100.00
65614;BME280;52283;49.292;10.572;2024-03-23T10:02:58;95866.25;;;6.86;100.00
65614;BME280;52283;49.292;10.572;2024-03-23T10:05:29;95869.44;;;6.73;100.00
65614;BME280;52283;49.292;10.572;2024-03-23T10:07:54;95845.00;;;6.83;100.00
65614;BME280;52283;49.292;10.572;2024-03-23T10:10:21;95821.50;;;6.79;100.00
65614;BME280;52283;49.292;10.572;2024-03-23T10:12:47;95849.72;;;7.03;100.00
65614;BME280;52283;49.292;10.572;2024-03-23T10:15:18;95835.50;;;6.90;100.00
65614;BME280;52283;49.292;10.572;2024-03-23T10:17:44;95849.94;;;6.99;100.00
65614;BME280;52283;49.292;10.572;2024-03-23T10:20:11;95844.13;;;6.97;100.00
65614;BME280;52283;49.292;10.572;2024-03-23T10:22:38;95837.91;;;7.14;100.00
65614;BME280;52283;49.292;10.572;2024-03-23T10:25:08;95837.03;;;6.96;100.00
65614;BME280;52283;49.292;10.572;2024-03-23T10:27:34;95850.31;;;7.18;100.00
65614;BME280;52283;49.292;10.572;2024-03-23T10:30:08;95846.53;;;7.21;100.00
65614;BME280;52283;49.292;10.572;2024-03-23T10:32:34;95846.91;;;6.97;100.00
65614;BME280;52283;49.292;10.572;2024-03-23T10:35:14;95844.66;;;7.01;100.00
65614;BME280;52283;49.292;10.572;2024-03-23T10:37:41;95845.66;;;7.04;100.00
65614;BME280;52283;49.292;10.572;2024-03-23T10:40:10;95850.16;;;6.64;100.00
65614;BME280;52283;49.292;10.572;2024-03-23T10:42:37;95874.03;;;6.82;100.00
65614;BME280;52283;49.292;10.572;2024-03-23T10:45:05;95865.31;;;6.95;100.00
65614;BME280;52283;49.292;10.572;2024-03-23T10:47:31;95875.91;;;6.91;100.00
65614;BME280;52283;49.292;10.572;2024-03-23T10:49:58;95873.44;;;7.04;100.00
65614;BME280;52283;49.292;10.572;2024-03-23T10:52:23;95859.56;;;7.04;100.00
65614;BME280;52283;49.292;10.572;2024-03-23T10:54:52;95860.16;;;7.14;100.00
65614;BME280;52283;49.292;10.572;2024-03-23T10:57:19;95863.91;;;7.11;100.00
65614;BME280;52283;49.292;10.572;2024-03-23T10:59:47;95852.94;;;7.33;100.00
65614;BME280;52283;49.292;10.572;2024-03-23T11:02:18;95856.72;;;7.30;100.00
65614;BME280;52283;49.292;10.572;2024-03-23T11:04:45;95859.38;;;7.50;100.00
65614;BME280;52283;49.292;10.572;2024-03-23T11:07:30;95854.47;;;7.34;100.00
65614;BME280;52283;49.292;10.572;2024-03-23T11:09:58;95851.34;;;7.69;100.00
65614;BME280;52283;49.292;10.572;2024-03-23T11:12:31;95840.59;;;8.05;100.00
65614;BME280;52283;49.292;10.572;2024-03-23T11:15:01;95852.69;;;7.85;100.00
65614;BME280;52283;49.292;10.572;2024-03-23T11:17:28;95838.94;;;7.59;100.00
65614;BME280;52283;49.292;10.572;2024-03-23T11:19:55;95841.53;;;7.79;100.00
65614;BME280;52283;49.292;10.572;2024-03-23T11:22:41;95826.16;;;7.30;100.00
65614;BME280;52283;49.292;10.572;2024-03-23T11:25:17;95821.59;;;7.86;100.00
65614;BME280;52283;49.292;10.572;2024-03-23T11:27:44;95812.22;;;7.84;100.00
65614;BME280;52283;49.292;10.572;2024-03-23T11:30:15;95803.94;;;8.06;99.00
65614;BME280;52283;49.292;10.572;2024-03-23T11:32:41;95782.19;;;8.05;87.15
65614;BME280;52283;49.292;10.572;2024-03-23T11:35:08;95769.56;;;9.04;84.68
65614;BME280;52283;49.292;10.572;2024-03-23T11:37:36;95774.84;;;9.19;82.89
65614;BME280;52283;49.292;10.572;2024-03-23T11:40:19;95786.75;;;8.13;78.95
65614;BME280;52283;49.292;10.572;2024-03-23T11:42:45;95785.22;;;8.01;79.78
65614;BME280;52283;49.292;10.572;2024-03-23T11:45:12;95790.06;;;8.29;78.36
65614;BME280;52283;49.292;10.572;2024-03-23T11:47:38;95785.53;;;8.87;74.47
65614;BME280;52283;49.292;10.572;2024-03-23T11:50:04;95789.56;;;9.08;74.70
65614;BME280;52283;49.292;10.572;2024-03-23T11:52:30;95784.00;;;8.86;71.97
65614;BME280;52283;49.292;10.572;2024-03-23T11:55:03;95778.22;;;8.78;72.50
65614;BME280;52283;49.292;10.572;2024-03-23T11:57:30;95770.38;;;9.63;66.87
65614;BME280;52283;49.292;10.572;2024-03-23T11:59:57;95775.53;;;9.42;68.98
65614;BME280;52283;49.292;10.572;2024-03-23T12:02:22;95758.09;;;9.88;69.11
65614;BME280;52283;49.292;10.572;2024-03-23T12:04:49;95757.25;;;10.04;67.82
65614;BME280;52283;49.292;10.572;2024-03-23T12:07:16;95752.56;;;9.77;63.84
65614;BME280;52283;49.292;10.572;2024-03-23T12:09:44;95756.19;;;9.61;65.14
65614;BME280;52283;49.292;10.572;2024-03-23T12:12:14;95770.47;;;9.35;65.24
65614;BME280;52283;49.292;10.572;2024-03-23T12:14:43;95773.41;;;8.40;68.11
65614;BME280;52283;49.292;10.572;2024-03-23T12:17:10;95788.34;;;8.65;70.66
65614;BME280;52283;49.292;10.572;2024-03-23T12:19:37;95782.25;;;8.77;68.76
65614;BME280;52283;49.292;10.572;2024-03-23T12:22:03;95776.66;;;8.89;66.50
65614;BME280;52283;49.292;10.572;2024-03-23T12:24:29;95765.81;;;8.63;64.77
65614;BME280;52283;49.292;10.572;2024-03-23T12:26:55;95759.44;;;8.84;65.59
65614;BME280;52283;49.292;10.572;2024-03-23T12:29:27;95781.00;;;8.78;64.39
65614;BME280;52283;49.292;10.572;2024-03-23T12:31:53;95783.53;;;8.76;65.61
65614;BME280;52283;49.292;10.572;2024-03-23T12:34:21;95787.31;;;8.34;66.29
65614;BME280;52283;49.292;10.572;2024-03-23T12:36:46;95784.97;;;8.10;67.17
65614;BME280;52283;49.292;10.572;2024-03-23T12:39:13;95786.00;;;8.30;67.15
65614;BME280;52283;49.292;10.572;2024-03-23T12:41:38;95799.22;;;8.35;67.25
65614;BME280;52283;49.292;10.572;2024-03-23T12:44:05;95776.69;;;8.44;64.80
65614;BME280;52283;49.292;10.572;2024-03-23T12:46:30;95754.28;;;9.28;60.67
65614;BME280;52283;49.292;10.572;2024-03-23T12:48:58;95762.75;;;8.83;60.97
65614;BME280;52283;49.292;10.572;2024-03-23T12:51:24;95747.13;;;9.43;60.49
65614;BME280;52283;49.292;10.572;2024-03-23T12:53:51;95751.53;;;9.11;60.52
65614;BME280;52283;49.292;10.572;2024-03-23T12:56:16;95736.25;;;9.40;60.16
65614;BME280;52283;49.292;10.572;2024-03-23T12:58:43;95740.66;;;9.71;59.32
65614;BME280;52283;49.292;10.572;2024-03-23T13:01:09;95745.44;;;9.24;55.12
65614;BME280;52283;49.292;10.572;2024-03-23T13:03:35;95723.19;;;9.01;55.16
65614;BME280;52283;49.292;10.572;2024-03-23T13:06:03;95734.81;;;9.16;54.49
65614;BME280;52283;49.292;10.572;2024-03-23T13:08:32;95734.97;;;9.41;55.59
65614;BME280;52283;49.292;10.572;2024-03-23T13:10:58;95735.91;;;8.85;54.00
65614;BME280;52283;49.292;10.572;2024-03-23T13:13:25;95737.91;;;8.91;52.46
65614;BME280;52283;49.292;10.572;2024-03-23T13:15:50;95738.63;;;9.08;53.35
65614;BME280;52283;49.292;10.572;2024-03-23T13:18:16;95730.00;;;9.17;51.70
65614;BME280;52283;49.292;10.572;2024-03-23T13:20:42;95731.38;;;8.77;52.06
65614;BME280;52283;49.292;10.572;2024-03-23T13:23:10;95748.34;;;8.62;51.96
65614;BME280;52283;49.292;10.572;2024-03-23T13:25:35;95724.25;;;8.87;51.54
65614;BME280;52283;49.292;10.572;2024-03-23T13:28:02;95728.97;;;9.14;51.54
65614;BME280;52283;49.292;10.572;2024-03-23T13:30:29;95718.91;;;8.95;51.38
65614;BME280;52283;49.292;10.572;2024-03-23T13:32:55;95711.56;;;8.97;51.07
65614;BME280;52283;49.292;10.572;2024-03-23T13:35:21;95718.31;;;9.24;52.82
65614;BME280;52283;49.292;10.572;2024-03-23T13:37:47;95722.88;;;9.16;53.12
65614;BME280;52283;49.292;10.572;2024-03-23T13:40:15;95725.00;;;8.82;54.12